sensor_id;sensor_type;location;lat;lon;timestamp;pressure;altitude;pressure_sealevel;temperature;humidity
27643;BME280;15053;48.618;10.024;2023-04-24T00:01:05;93317.59;;;11.54;80.97
27643;BME280;15053;48.618;10.024;2023-04-24T00:03:34;93312.28;;;11.50;80.91
27643;BME280;15053;48.618;10.024;2023-04-24T00:06:01;93317.16;;;11.52;80.85
27643;BME280;15053;48.618;10.024;2023-04-24T00:08:29;93320.09;;;11.50;81.02
27643;BME280;15053;48.618;10.024;2023-04-24T00:10:55;93319.94;;;11.47;80.86
27643;BME280;15053;48.618;10.024;2023-04-24T00:13:22;93325.03;;;11.43;81.59
27643;BME280;15053;48.618;10.024;2023-04-24T00:15:48;93321.06;;;11.37;82.13
27643;BME280;15053;48.618;10.024;2023-04-24T00:18:15;93340.56;;;11.31;83.03
27643;BME280;15053;48.618;10.024;2023-04-24T00:20:42;93337.06;;;11.27;83.53
27643;BME280;15053;48.618;10.024;2023-04-24T00:23:09;93326.97;;;11.17;84.18
27643;BME280;15053;48.618;10.024;2023-04-24T00:25:36;93322.84;;;11.16;84.14
27643;BME280;15053;48.618;10.024;2023-04-24T00:28:02;93324.38;;;11.17;84.87
27643;BME280;15053;48.618;10.024;2023-04-24T00:30:29;93325.00;;;11.14;84.87
27643;BME280;15053;48.618;10.024;2023-04-24T00:32:56;93332.66;;;11.10;85.00
27643;BME280;15053;48.618;10.024;2023-04-24T00:35:23;93322.13;;;11.07;85.30
27643;BME280;15053;48.618;10.024;2023-04-24T00:37:49;93324.41;;;11.08;85.45
27643;BME280;15053;48.618;10.024;2023-04-24T00:40:16;93327.34;;;11.07;85.81
27643;BME280;15053;48.618;10.024;2023-04-24T00:42:43;93322.56;;;11.09;85.77
27643;BME280;15053;48.618;10.024;2023-04-24T00:45:10;93323.63;;;11.08;86.03
27643;BME280;15053;48.618;10.024;2023-04-24T00:47:38;93321.47;;;11.10;85.93
27643;BME280;15053;48.618;10.024;2023-04-24T00:50:06;93317.03;;;11.10;86.03
27643;BME280;15053;48.618;10.024;2023-04-24T00:52:33;93319.34;;;11.12;85.76
27643;BME280;15053;48.618;10.024;2023-04-24T00:55:00;93318.41;;;11.08;85.71
27643;BME280;15053;48.618;10.024;2023-04-24T00:57:26;93316.91;;;11.07;85.73
27643;BME280;15053;48.618;10.024;2023-04-24T00:59:53;93319.97;;;11.09;86.02
27643;BME280;15053;48.618;10.024;2023-04-24T01:02:21;93311.69;;;11.07;85.65
27643;BME280;15053;48.618;10.024;2023-04-24T01:04:51;93316.91;;;11.07;85.62
27643;BME280;15053;48.618;10.024;2023-04-24T01:07:21;93314.31;;;11.07;85.63
27643;BME280;15053;48.618;10.024;2023-04-24T01:09:50;93317.34;;;11.09;85.82
27643;BME280;15053;48.618;10.024;2023-04-24T01:12:19;93309.53;;;11.09;85.81
27643;BME280;15053;48.618;10.024;2023-04-24T01:14:45;93308.16;;;11.11;85.61
27643;BME280;15053;48.618;10.024;2023-04-24T01:17:14;93308.91;;;11.12;85.36
27643;BME280;15053;48.618;10.024;2023-04-24T01:19:41;93306.94;;;11.09;85.18
27643;BME280;15053;48.618;10.024;2023-04-24T01:22:16;93301.13;;;11.03;85.36
27643;BME280;15053;48.618;10.024;2023-04-24T01:24:43;93302.03;;;10.99;85.63
27643;BME280;15053;48.618;10.024;2023-04-24T01:27:11;93303.75;;;10.95;85.64
27643;BME280;15053;48.618;10.024;2023-04-24T01:29:38;93293.81;;;10.88;85.65
27643;BME280;15053;48.618;10.024;2023-04-24T01:32:05;93296.28;;;10.85;85.96
27643;BME280;15053;48.618;10.024;2023-04-24T01:34:32;93291.88;;;10.77;86.02
27643;BME280;15053;48.618;10.024;2023-04-24T01:37:00;93285.75;;;10.73;86.29
27643;BME280;15053;48.618;10.024;2023-04-24T01:39:26;93283.75;;;10.70;86.38
27643;BME280;15053;48.618;10.024;2023-04-24T01:41:55;93282.41;;;10.63;86.78
27643;BME280;15053;48.618;10.024;2023-04-24T01:44:22;93283.00;;;10.60;86.97
27643;BME280;15053;48.618;10.024;2023-04-24T01:46:48;93276.91;;;10.56;87.31
27643;BME280;15053;48.618;10.024;2023-04-24T01:49:15;93279.81;;;10.55;87.37
27643;BME280;15053;48.618;10.024;2023-04-24T01:51:41;93278.28;;;10.54;87.29
27643;BME280;15053;48.618;10.024;2023-04-24T01:54:08;93277.53;;;10.53;87.68
27643;BME280;15053;48.618;10.024;2023-04-24T01:56:34;93280.13;;;10.53;87.61
27643;BME280;15053;48.618;10.024;2023-04-24T01:59:04;93281.19;;;10.52;87.65
27643;BME280;15053;48.618;10.024;2023-04-24T02:01:35;93275.53;;;10.50;87.51
27643;BME280;15053;48.618;10.024;2023-04-24T02:04:03;93275.88;;;10.49;87.91
27643;BME280;15053;48.618;10.024;2023-04-24T02:06:30;93277.69;;;10.48;87.95
27643;BME280;15053;48.618;10.024;2023-04-24T02:09:00;93262.84;;;10.40;87.82
27643;BME280;15053;48.618;10.024;2023-04-24T02:11:27;93280.75;;;10.50;87.82
27643;BME280;15053;48.618;10.024;2023-04-24T02:13:53;93275.09;;;10.48;88.08
27643;BME280;15053;48.618;10.024;2023-04-24T02:16:20;93276.16;;;10.47;87.72
27643;BME280;15053;48.618;10.024;2023-04-24T02:18:47;93280.16;;;10.45;88.45
27643;BME280;15053;48.618;10.024;2023-04-24T02:21:13;93268.50;;;10.42;88.30
27643;BME280;15053;48.618;10.024;2023-04-24T02:23:40;93277.09;;;10.43;88.02
27643;BME280;15053;48.618;10.024;2023-04-24T02:26:07;93273.28;;;10.40;88.12
27643;BME280;15053;48.618;10.024;2023-04-24T02:28:33;93276.94;;;10.39;88.36
27643;BME280;15053;48.618;10.024;2023-04-24T02:31:00;93282.91;;;10.40;88.28
27643;BME280;15053;48.618;10.024;2023-04-24T02:33:26;93272.50;;;10.40;88.29
27643;BME280;15053;48.618;10.024;2023-04-24T02:35:53;93272.19;;;10.41;88.18
27643;BME280;15053;48.618;10.024;2023-04-24T02:38:19;93265.91;;;10.42;88.34
27643;BME280;15053;48.618;10.024;2023-04-24T02:40:46;93268.19;;;10.44;88.49
27643;BME280;15053;48.618;10.024;2023-04-24T02:43:12;93270.19;;;10.47;88.24
27643;BME280;15053;48.618;10.024;2023-04-24T02:45:39;93277.69;;;10.48;88.17
27643;BME280;15053;48.618;10.024;2023-04-24T02:48:05;93278.00;;;10.47;88.33
27643;BME280;15053;48.618;10.024;2023-04-24T02:50:32;93276.47;;;10.46;88.10
27643;BME280;15053;48.618;10.024;2023-04-24T02:52:59;93281.53;;;10.42;88.35
27643;BME280;15053;48.618;10.024;2023-04-24T02:55:26;93277.88;;;10.43;88.45
27643;BME280;15053;48.618;10.024;2023-04-24T02:57:53;93277.38;;;10.41;87.96
27643;BME280;15053;48.618;10.024;2023-04-24T03:00:19;93276.94;;;10.39;88.27
27643;BME280;15053;48.618;10.024;2023-04-24T03:02:46;93271.72;;;10.39;87.85
27643;BME280;15053;48.618;10.024;2023-04-24T03:05:13;93274.78;;;10.41;88.31
27643;BME280;15053;48.618;10.024;2023-04-24T03:07:39;93266.69;;;10.43;88.19
27643;BME280;15053;48.618;10.024;2023-04-24T03:10:06;93271.13;;;10.42;88.25
27643;BME280;15053;48.618;10.024;2023-04-24T03:12:33;93274.94;;;10.45;88.07
27643;BME280;15053;48.618;10.024;2023-04-24T03:14:59;93272.78;;;10.47;87.92
27643;BME280;15053;48.618;10.024;2023-04-24T03:17:26;93269.13;;;10.48;87.97
27643;BME280;15053;48.618;10.024;2023-04-24T03:19:52;93268.34;;;10.47;87.84
27643;BME280;15053;48.618;10.024;2023-04-24T03:22:19;93262.97;;;10.44;87.77
27643;BME280;15053;48.618;10.024;2023-04-24T03:24:46;93259.31;;;10.45;87.91
27643;BME280;15053;48.618;10.024;2023-04-24T03:27:15;93264.69;;;10.48;87.69
27643;BME280;15053;48.618;10.024;2023-04-24T03:29:52;93274.16;;;10.44;87.74
27643;BME280;15053;48.618;10.024;2023-04-24T03:32:26;93265.28;;;10.45;87.68
27643;BME280;15053;48.618;10.024;2023-04-24T03:34:52;93267.56;;;10.47;87.61
27643;BME280;15053;48.618;10.024;2023-04-24T03:37:19;93266.19;;;10.49;87.47
27643;BME280;15053;48.618;10.024;2023-04-24T03:39:56;93258.38;;;10.49;87.34
27643;BME280;15053;48.618;10.024;2023-04-24T03:42:24;93266.84;;;10.46;87.37
27643;BME280;15053;48.618;10.024;2023-04-24T03:44:54;93267.56;;;10.47;87.49
27643;BME280;15053;48.618;10.024;2023-04-24T03:47:24;93267.56;;;10.47;87.54
27643;BME280;15053;48.618;10.024;2023-04-24T03:49:54;93265.16;;;10.42;87.85
27643;BME280;15053;48.618;10.024;2023-04-24T03:52:22;93270.50;;;10.45;87.51
27643;BME280;15053;48.618;10.024;2023-04-24T03:54:49;93267.91;;;10.45;87.76
27643;BME280;15053;48.618;10.024;2023-04-24T03:57:16;93279.38;;;10.44;87.47
27643;BME280;15053;48.618;10.024;2023-04-24T03:59:52;93276.66;;;10.41;87.55
27643;BME280;15053;48.618;10.024;2023-04-24T04:02:20;93277.38;;;10.41;87.71
27643;BME280;15053;48.618;10.024;2023-04-24T04:04:47;93282.13;;;10.39;88.02
27643;BME280;15053;48.618;10.024;2023-04-24T04:07:13;93278.00;;;10.38;88.06
27643;BME280;15053;48.618;10.024;2023-04-24T04:09:40;93280.16;;;10.36;88.06
27643;BME280;15053;48.618;10.024;2023-04-24T04:12:07;93279.38;;;10.36;88.24
27643;BME280;15053;48.618;10.024;2023-04-24T04:14:34;93279.25;;;10.32;88.33
27643;BME280;15053;48.618;10.024;2023-04-24T04:17:01;93274.34;;;10.31;88.66
27643;BME280;15053;48.618;10.024;2023-04-24T04:19:27;93272.84;;;10.30;88.66
27643;BME280;15053;48.618;10.024;2023-04-24T04:21:54;93278.50;;;10.32;88.47
27643;BME280;15053;48.618;10.024;2023-04-24T04:24:34;93279.25;;;10.32;88.57
27643;BME280;15053;48.618;10.024;2023-04-24T04:27:04;93285.53;;;10.31;88.36
27643;BME280;15053;48.618;10.024;2023-04-24T04:29:37;93291.50;;;10.32;88.71
27643;BME280;15053;48.618;10.024;2023-04-24T04:32:07;93279.41;;;10.27;88.24
27643;BME280;15053;48.618;10.024;2023-04-24T04:34:34;93289.19;;;10.30;88.39
27643;BME280;15053;48.618;10.024;2023-04-24T04:37:00;93292.88;;;10.29;88.36
27643;BME280;15053;48.618;10.024;2023-04-24T04:39:41;93292.09;;;10.29;88.68
27643;BME280;15053;48.618;10.024;2023-04-24T04:42:16;93289.19;;;10.30;88.54
27643;BME280;15053;48.618;10.024;2023-04-24T04:44:43;93297.00;;;10.30;88.62
27643;BME280;15053;48.618;10.024;2023-04-24T04:47:16;93297.00;;;10.30;88.94
27643;BME280;15053;48.618;10.024;2023-04-24T04:49:44;93295.47;;;10.29;88.93
27643;BME280;15053;48.618;10.024;2023-04-24T04:52:20;93293.94;;;10.28;88.78
27643;BME280;15053;48.618;10.024;2023-04-24T04:54:56;93300.69;;;10.29;89.21
27643;BME280;15053;48.618;10.024;2023-04-24T04:57:30;93303.91;;;10.26;89.09
27643;BME280;15053;48.618;10.024;2023-04-24T04:59:56;93314.47;;;10.30;89.35
27643;BME280;15053;48.618;10.024;2023-04-24T05:02:36;93313.84;;;10.33;88.91
27643;BME280;15053;48.618;10.024;2023-04-24T05:05:04;93314.91;;;10.32;89.26
27643;BME280;15053;48.618;10.024;2023-04-24T05:07:31;93314.91;;;10.32;89.08
27643;BME280;15053;48.618;10.024;2023-04-24T05:09:57;93325.00;;;10.33;89.14
27643;BME280;15053;48.618;10.024;2023-04-24T05:12:24;93321.34;;;10.34;88.86
27643;BME280;15053;48.618;10.024;2023-04-24T05:14:52;93328.09;;;10.35;89.70
27643;BME280;15053;48.618;10.024;2023-04-24T05:17:19;93333.75;;;10.37;89.20
27643;BME280;15053;48.618;10.024;2023-04-24T05:19:46;93325.63;;;10.39;89.07
27643;BME280;15053;48.618;10.024;2023-04-24T05:22:13;93337.25;;;10.41;89.14
27643;BME280;15053;48.618;10.024;2023-04-24T05:24:47;93331.59;;;10.39;89.26
27643;BME280;15053;48.618;10.024;2023-04-24T05:27:40;93333.59;;;10.42;89.04
27643;BME280;15053;48.618;10.024;2023-04-24T05:30:13;93321.63;;;10.41;89.36
27643;BME280;15053;48.618;10.024;2023-04-24T05:32:40;93325.94;;;10.46;88.91
27643;BME280;15053;48.618;10.024;2023-04-24T05:35:07;93318.13;;;10.46;88.85
27643;BME280;15053;48.618;10.024;2023-04-24T05:37:35;93326.69;;;10.46;88.86
27643;BME280;15053;48.618;10.024;2023-04-24T05:40:01;93331.59;;;10.48;88.86
27643;BME280;15053;48.618;10.024;2023-04-24T05:42:31;93330.53;;;10.49;89.31
27643;BME280;15053;48.618;10.024;2023-04-24T05:44:57;93335.41;;;10.50;88.83
27643;BME280;15053;48.618;10.024;2023-04-24T05:47:26;93342.16;;;10.51;89.10
27643;BME280;15053;48.618;10.024;2023-04-24T05:49:53;93343.06;;;10.55;89.08
27643;BME280;15053;48.618;10.024;2023-04-24T05:52:20;93355.31;;;10.55;88.98
27643;BME280;15053;48.618;10.024;2023-04-24T05:54:48;93415.06;;;10.51;88.83
27643;BME280;15053;48.618;10.024;2023-04-24T05:57:20;93434.16;;;10.38;85.63
27643;BME280;15053;48.618;10.024;2023-04-24T05:59:51;93418.75;;;9.85;81.67
27643;BME280;15053;48.618;10.024;2023-04-24T06:02:19;93414.75;;;9.40;82.82
27643;BME280;15053;48.618;10.024;2023-04-24T06:04:46;93414.28;;;9.07;83.86
27643;BME280;15053;48.618;10.024;2023-04-24T06:07:13;93435.56;;;8.87;84.83
27643;BME280;15053;48.618;10.024;2023-04-24T06:09:42;93436.03;;;8.67;86.80
27643;BME280;15053;48.618;10.024;2023-04-24T06:12:09;93427.63;;;8.48;87.90
27643;BME280;15053;48.618;10.024;2023-04-24T06:14:58;93438.03;;;8.48;88.10
27643;BME280;15053;48.618;10.024;2023-04-24T06:17:43;93437.16;;;8.39;87.64
27643;BME280;15053;48.618;10.024;2023-04-24T06:20:10;93433.16;;;8.32;87.69
27643;BME280;15053;48.618;10.024;2023-04-24T06:22:38;93433.44;;;8.31;88.29
27643;BME280;15053;48.618;10.024;2023-04-24T06:25:06;93411.94;;;8.30;89.31
27643;BME280;15053;48.618;10.024;2023-04-24T06:27:33;93418.06;;;8.35;88.98
27643;BME280;15053;48.618;10.024;2023-04-24T06:30:00;93418.53;;;8.37;89.52
27643;BME280;15053;48.618;10.024;2023-04-24T06:32:27;93418.75;;;8.40;88.77
27643;BME280;15053;48.618;10.024;2023-04-24T06:34:54;93418.31;;;8.47;88.86
27643;BME280;15053;48.618;10.024;2023-04-24T06:37:20;93418.38;;;8.55;88.57
27643;BME280;15053;48.618;10.024;2023-04-24T06:39:47;93424.22;;;8.61;87.95
27643;BME280;15053;48.618;10.024;2023-04-24T06:42:13;93410.06;;;8.67;87.64
27643;BME280;15053;48.618;10.024;2023-04-24T06:44:42;93412.28;;;8.73;88.08
27643;BME280;15053;48.618;10.024;2023-04-24T06:47:10;93409.06;;;8.76;87.97
27643;BME280;15053;48.618;10.024;2023-04-24T06:49:37;93403.88;;;8.76;88.57
27643;BME280;15053;48.618;10.024;2023-04-24T06:52:03;93411.84;;;8.80;88.96
27643;BME280;15053;48.618;10.024;2023-04-24T06:54:30;93407.88;;;8.82;89.36
27643;BME280;15053;48.618;10.024;2023-04-24T06:56:57;93407.66;;;8.93;89.90
27643;BME280;15053;48.618;10.024;2023-04-24T06:59:24;93410.91;;;8.98;90.03
27643;BME280;15053;48.618;10.024;2023-04-24T07:01:51;93412.78;;;9.06;90.48
27643;BME280;15053;48.618;10.024;2023-04-24T07:04:20;93410.03;;;9.11;90.08
27643;BME280;15053;48.618;10.024;2023-04-24T07:06:47;93403.66;;;9.17;90.69
27643;BME280;15053;48.618;10.024;2023-04-24T07:09:15;93411.97;;;9.28;90.75
27643;BME280;15053;48.618;10.024;2023-04-24T07:11:45;93419.31;;;9.34;90.23
27643;BME280;15053;48.618;10.024;2023-04-24T07:14:12;93414.28;;;9.38;90.54
27643;BME280;15053;48.618;10.024;2023-04-24T07:16:39;93419.53;;;9.46;90.55
27643;BME280;15053;48.618;10.024;2023-04-24T07:19:05;93420.16;;;9.52;90.48
27643;BME280;15053;48.618;10.024;2023-04-24T07:21:32;93421.72;;;9.53;89.40
27643;BME280;15053;48.618;10.024;2023-04-24T07:23:59;93418.97;;;9.58;89.57
27643;BME280;15053;48.618;10.024;2023-04-24T07:26:27;93436.44;;;9.66;89.34
27643;BME280;15053;48.618;10.024;2023-04-24T07:28:54;93430.78;;;9.73;89.14
27643;BME280;15053;48.618;10.024;2023-04-24T07:31:21;93433.25;;;9.78;88.87
27643;BME280;15053;48.618;10.024;2023-04-24T07:33:48;93433.41;;;9.81;88.71
27643;BME280;15053;48.618;10.024;2023-04-24T07:36:15;93429.94;;;9.86;88.87
27643;BME280;15053;48.618;10.024;2023-04-24T07:38:45;93430.84;;;9.90;89.00
27643;BME280;15053;48.618;10.024;2023-04-24T07:41:13;93436.97;;;9.94;89.07
27643;BME280;15053;48.618;10.024;2023-04-24T07:43:40;93436.22;;;9.93;88.49
27643;BME280;15053;48.618;10.024;2023-04-24T07:46:08;93437.47;;;10.04;88.13
27643;BME280;15053;48.618;10.024;2023-04-24T07:48:34;93441.03;;;10.17;87.98
27643;BME280;15053;48.618;10.024;2023-04-24T07:51:01;93448.25;;;10.37;87.28
27643;BME280;15053;48.618;10.024;2023-04-24T07:53:27;93451.34;;;10.56;86.55
27643;BME280;15053;48.618;10.024;2023-04-24T07:55:56;93453.47;;;10.80;86.15
27643;BME280;15053;48.618;10.024;2023-04-24T07:58:22;93456.41;;;10.87;85.38
27643;BME280;15053;48.618;10.024;2023-04-24T08:00:49;93454.53;;;10.88;84.03
27643;BME280;15053;48.618;10.024;2023-04-24T08:03:15;93461.28;;;10.89;83.13
27643;BME280;15053;48.618;10.024;2023-04-24T08:05:45;93455.78;;;10.82;82.82
27643;BME280;15053;48.618;10.024;2023-04-24T08:08:12;93459.28;;;10.68;81.94
27643;BME280;15053;48.618;10.024;2023-04-24T08:10:39;93475.84;;;10.64;81.93
27643;BME280;15053;48.618;10.024;2023-04-24T08:13:05;93469.88;;;10.63;81.89
27643;BME280;15053;48.618;10.024;2023-04-24T08:15:32;93456.06;;;10.63;81.77
27643;BME280;15053;48.618;10.024;2023-04-24T08:17:58;93461.75;;;10.65;81.72
27643;BME280;15053;48.618;10.024;2023-04-24T08:20:25;93463.44;;;10.70;81.95
27643;BME280;15053;48.618;10.024;2023-04-24T08:22:52;93453.78;;;10.70;81.59
27643;BME280;15053;48.618;10.024;2023-04-24T08:25:18;93468.19;;;10.68;81.61
27643;BME280;15053;48.618;10.024;2023-04-24T08:27:45;93463.16;;;10.62;80.98
27643;BME280;15053;48.618;10.024;2023-04-24T08:30:12;93480.59;;;10.53;80.09
27643;BME280;15053;48.618;10.024;2023-04-24T08:32:38;93485.94;;;10.40;79.61
27643;BME280;15053;48.618;10.024;2023-04-24T08:35:05;93484.53;;;10.34;80.69
27643;BME280;15053;48.618;10.024;2023-04-24T08:37:32;93482.69;;;10.34;81.06
27643;BME280;15053;48.618;10.024;2023-04-24T08:39:58;93485.16;;;10.39;81.37
27643;BME280;15053;48.618;10.024;2023-04-24T08:42:28;93486.09;;;10.43;81.88
27643;BME280;15053;48.618;10.024;2023-04-24T08:44:54;93483.94;;;10.45;80.54
27643;BME280;15053;48.618;10.024;2023-04-24T08:47:22;93496.94;;;10.37;80.00
27643;BME280;15053;48.618;10.024;2023-04-24T08:49:49;93506.41;;;10.24;80.28
27643;BME280;15053;48.618;10.024;2023-04-24T08:52:18;93490.91;;;10.11;80.70
27643;BME280;15053;48.618;10.024;2023-04-24T08:54:45;93497.06;;;10.23;81.08
27643;BME280;15053;48.618;10.024;2023-04-24T08:57:14;93500.34;;;10.46;81.61
27643;BME280;15053;48.618;10.024;2023-04-24T08:59:41;93495.00;;;10.59;81.69
27643;BME280;15053;48.618;10.024;2023-04-24T09:02:10;93495.91;;;10.63;81.74
27643;BME280;15053;48.618;10.024;2023-04-24T09:04:38;93502.50;;;10.70;82.14
27643;BME280;15053;48.618;10.024;2023-04-24T09:07:08;93482.59;;;10.82;81.77
27643;BME280;15053;48.618;10.024;2023-04-24T09:09:38;93488.56;;;11.00;81.90
27643;BME280;15053;48.618;10.024;2023-04-24T09:12:05;93481.81;;;11.16;80.71
27643;BME280;15053;48.618;10.024;2023-04-24T09:14:32;93518.75;;;11.26;76.26
27643;BME280;15053;48.618;10.024;2023-04-24T09:16:59;93490.38;;;11.34;76.99
27643;BME280;15053;48.618;10.024;2023-04-24T09:19:25;93498.91;;;11.51;77.40
27643;BME280;15053;48.618;10.024;2023-04-24T09:21:52;93497.38;;;11.59;76.29
27643;BME280;15053;48.618;10.024;2023-04-24T09:24:20;93484.03;;;11.60;74.94
27643;BME280;15053;48.618;10.024;2023-04-24T09:26:56;93497.69;;;11.57;73.38
27643;BME280;15053;48.618;10.024;2023-04-24T09:29:24;93490.38;;;11.42;70.06
27643;BME280;15053;48.618;10.024;2023-04-24T09:31:50;93508.00;;;11.37;69.81
27643;BME280;15053;48.618;10.024;2023-04-24T09:34:30;93492.38;;;11.28;68.47
27643;BME280;15053;48.618;10.024;2023-04-24T09:36:57;93507.25;;;11.36;63.14
27643;BME280;15053;48.618;10.024;2023-04-24T09:39:23;93535.91;;;11.53;64.53
27643;BME280;15053;48.618;10.024;2023-04-24T09:41:52;93504.72;;;11.65;65.44
27643;BME280;15053;48.618;10.024;2023-04-24T09:44:24;93503.16;;;11.81;60.36
27643;BME280;15053;48.618;10.024;2023-04-24T09:46:56;93507.13;;;11.88;60.21
27643;BME280;15053;48.618;10.024;2023-04-24T09:49:24;93512.78;;;11.90;58.22
27643;BME280;15053;48.618;10.024;2023-04-24T09:51:52;93522.16;;;11.91;57.55
27643;BME280;15053;48.618;10.024;2023-04-24T09:54:20;93507.91;;;11.88;57.55
27643;BME280;15053;48.618;10.024;2023-04-24T09:56:49;93527.56;;;11.86;55.25
27643;BME280;15053;48.618;10.024;2023-04-24T09:59:17;93555.81;;;11.83;56.44
27643;BME280;15053;48.618;10.024;2023-04-24T10:01:44;93517.41;;;11.84;56.54
27643;BME280;15053;48.618;10.024;2023-04-24T10:04:25;93511.84;;;12.03;56.89
27643;BME280;15053;48.618;10.024;2023-04-24T10:06:54;93513.19;;;12.09;53.94
27643;BME280;15053;48.618;10.024;2023-04-24T10:09:24;93516.09;;;12.16;55.51
27643;BME280;15053;48.618;10.024;2023-04-24T10:11:53;93509.28;;;12.23;55.67
27643;BME280;15053;48.618;10.024;2023-04-24T10:14:24;93508.63;;;12.35;55.38
27643;BME280;15053;48.618;10.024;2023-04-24T10:16:53;93514.69;;;12.48;54.22
27643;BME280;15053;48.618;10.024;2023-04-24T10:19:20;93529.78;;;12.71;54.40
27643;BME280;15053;48.618;10.024;2023-04-24T10:21:47;93521.97;;;12.63;52.52
27643;BME280;15053;48.618;10.024;2023-04-24T10:24:15;93518.63;;;12.33;52.90
27643;BME280;15053;48.618;10.024;2023-04-24T10:26:43;93569.41;;;12.44;53.17
27643;BME280;15053;48.618;10.024;2023-04-24T10:29:13;93529.00;;;12.41;55.25
27643;BME280;15053;48.618;10.024;2023-04-24T10:31:41;93516.13;;;12.36;53.68
27643;BME280;15053;48.618;10.024;2023-04-24T10:34:09;93529.31;;;12.40;54.14
27643;BME280;15053;48.618;10.024;2023-04-24T10:36:41;93525.75;;;12.44;52.72
27643;BME280;15053;48.618;10.024;2023-04-24T10:39:12;93539.13;;;12.43;54.05
27643;BME280;15053;48.618;10.024;2023-04-24T10:41:41;93554.41;;;12.32;55.49
27643;BME280;15053;48.618;10.024;2023-04-24T10:44:09;93548.03;;;12.13;55.79
27643;BME280;15053;48.618;10.024;2023-04-24T10:46:37;93547.47;;;11.90;55.61
27643;BME280;15053;48.618;10.024;2023-04-24T10:49:07;93563.03;;;11.69;56.19
27643;BME280;15053;48.618;10.024;2023-04-24T10:51:50;93554.28;;;11.57;57.19
27643;BME280;15053;48.618;10.024;2023-04-24T10:54:25;93573.03;;;11.42;57.69
27643;BME280;15053;48.618;10.024;2023-04-24T10:56:52;93571.19;;;11.42;57.71
27643;BME280;15053;48.618;10.024;2023-04-24T10:59:27;93586.06;;;11.50;56.63
27643;BME280;15053;48.618;10.024;2023-04-24T11:01:54;93572.09;;;11.55;57.00
27643;BME280;15053;48.618;10.024;2023-04-24T11:04:32;93571.28;;;11.97;57.63
27643;BME280;15053;48.618;10.024;2023-04-24T11:06:59;93578.53;;;12.29;56.94
27643;BME280;15053;48.618;10.024;2023-04-24T11:09:28;93576.69;;;12.30;54.09
27643;BME280;15053;48.618;10.024;2023-04-24T11:12:11;93583.38;;;12.02;53.15
27643;BME280;15053;48.618;10.024;2023-04-24T11:17:35;93575.63;;;11.50;54.29
27643;BME280;15053;48.618;10.024;2023-04-24T11:20:05;93602.31;;;11.47;53.98
27643;BME280;15053;48.618;10.024;2023-04-24T11:22:54;93576.38;;;11.59;53.81
27643;BME280;15053;48.618;10.024;2023-04-24T11:25:21;93573.47;;;11.78;54.12
27643;BME280;15053;48.618;10.024;2023-04-24T11:28:03;93580.81;;;11.76;54.81
27643;BME280;15053;48.618;10.024;2023-04-24T11:30:31;93578.69;;;11.69;54.58
27643;BME280;15053;48.618;10.024;2023-04-24T11:33:02;93581.13;;;11.66;54.14
27643;BME280;15053;48.618;10.024;2023-04-24T11:35:35;93598.31;;;11.58;54.85
27643;BME280;15053;48.618;10.024;2023-04-24T11:38:03;93586.06;;;11.50;53.90
27643;BME280;15053;48.618;10.024;2023-04-24T11:40:34;93592.50;;;11.44;54.23
27643;BME280;15053;48.618;10.024;2023-04-24T11:43:01;93590.81;;;11.31;55.41
27643;BME280;15053;48.618;10.024;2023-04-24T11:45:28;93607.06;;;11.28;55.86
27643;BME280;15053;48.618;10.024;2023-04-24T11:47:56;93594.19;;;11.14;56.24
27643;BME280;15053;48.618;10.024;2023-04-24T11:50:24;93594.78;;;11.03;55.13
27643;BME280;15053;48.618;10.024;2023-04-24T11:52:56;93591.88;;;10.96;55.18
27643;BME280;15053;48.618;10.024;2023-04-24T11:55:25;93612.72;;;10.96;55.12
27643;BME280;15053;48.618;10.024;2023-04-24T11:57:55;93610.09;;;11.04;55.91
27643;BME280;15053;48.618;10.024;2023-04-24T12:00:26;93616.56;;;11.24;55.58
27643;BME280;15053;48.618;10.024;2023-04-24T12:03:09;93612.41;;;11.57;54.96
27643;BME280;15053;48.618;10.024;2023-04-24T12:05:37;93592.31;;;11.66;54.83
27643;BME280;15053;48.618;10.024;2023-04-24T12:08:04;93638.38;;;11.79;54.61
27643;BME280;15053;48.618;10.024;2023-04-24T12:10:33;93592.63;;;11.73;54.03
27643;BME280;15053;48.618;10.024;2023-04-24T12:13:00;93613.66;;;11.77;54.43
27643;BME280;15053;48.618;10.024;2023-04-24T12:15:27;93602.91;;;11.78;52.95
27643;BME280;15053;48.618;10.024;2023-04-24T12:17:56;93612.28;;;11.71;52.86
27643;BME280;15053;48.618;10.024;2023-04-24T12:20:32;93620.09;;;11.62;52.39
27643;BME280;15053;48.618;10.024;2023-04-24T12:23:00;93617.97;;;11.64;53.30
27643;BME280;15053;48.618;10.024;2023-04-24T12:25:31;93634.38;;;11.82;53.10
27643;BME280;15053;48.618;10.024;2023-04-24T12:30:33;93620.84;;;11.97;52.88
27643;BME280;15053;48.618;10.024;2023-04-24T12:33:00;93621.44;;;12.11;53.23
27643;BME280;15053;48.618;10.024;2023-04-24T12:35:30;93621.06;;;12.30;54.26
27643;BME280;15053;48.618;10.024;2023-04-24T12:38:08;93626.38;;;12.42;53.24
27643;BME280;15053;48.618;10.024;2023-04-24T12:40:35;93618.59;;;12.33;52.56
27643;BME280;15053;48.618;10.024;2023-04-24T12:43:18;93615.63;;;12.06;53.23
27643;BME280;15053;48.618;10.024;2023-04-24T12:45:47;93641.84;;;12.01;52.60
27643;BME280;15053;48.618;10.024;2023-04-24T12:48:13;93635.59;;;11.84;52.89
27643;BME280;15053;48.618;10.024;2023-04-24T12:50:43;93622.84;;;11.66;53.61
27643;BME280;15053;48.618;10.024;2023-04-24T12:53:12;93630.69;;;11.66;54.45
27643;BME280;15053;48.618;10.024;2023-04-24T12:55:39;93626.84;;;11.63;53.63
27643;BME280;15053;48.618;10.024;2023-04-24T12:58:06;93631.44;;;11.58;53.59
27643;BME280;15053;48.618;10.024;2023-04-24T13:00:32;93635.00;;;11.53;54.20
27643;BME280;15053;48.618;10.024;2023-04-24T13:02:59;93633.75;;;11.42;54.54